Time;durP1;ratioP1;P1;durP2;ratioP2;P2;SDS_P1;SDS_P2;PMS_P1;PMS_P2;Temp;Humidity;BMP_temperature;BMP_pressure;BME280_temperature;BME280_humidity;BME280_pressure;Samples;Min_cycle;Max_cycle;Signal;HPM_P1;HPM_P2
2021/06/18 00:02:16;;;;;;;16.42;11.75;;;;;;;15.12;76.91;98422.80;1743903;82;20919;-74
2021/06/18 00:04:42;;;;;;;17.73;11.63;;;;;;;15.09;76.11;98420.69;1720913;81;22531;-74
2021/06/18 00:07:08;;;;;;;14.85;11.83;;;;;;;15.10;76.52;98414.11;1761837;81;20940;-74
2021/06/18 00:09:36;;;;;;;14.65;11.63;;;;;;;15.08;76.49;98417.15;1761980;81;20888;-74
2021/06/18 00:12:05;;;;;;;15.38;11.78;;;;;;;15.03;75.42;98422.68;1762418;81;20971;-74
2021/06/18 00:14:31;;;;;;;16.05;12.78;;;;;;;14.91;77.65;98420.43;1762095;81;21416;-74
2021/06/18 00:16:57;;;;;;;15.15;12.07;;;;;;;14.85;76.80;98416.72;1762081;81;21153;-74
2021/06/18 00:19:23;;;;;;;13.80;11.00;;;;;;;14.83;76.44;98420.30;1762239;81;20838;-74
2021/06/18 00:21:49;;;;;;;13.55;10.43;;;;;;;14.76;76.67;98423.95;1762423;81;21003;-74
2021/06/18 00:24:15;;;;;;;12.78;10.28;;;;;;;14.67;77.81;98421.90;1762073;81;20927;-74
2021/06/18 00:26:41;;;;;;;13.45;9.63;;;;;;;14.67;77.35;98421.09;1762083;81;21412;-74
2021/06/18 00:29:07;;;;;;;11.20;9.18;;;;;;;14.60;78.29;98420.09;1762099;81;21087;-74
2021/06/18 00:31:33;;;;;;;14.03;9.53;;;;;;;14.61;77.56;98418.17;1736266;81;21023;-74
2021/06/18 00:33:59;;;;;;;11.10;9.40;;;;;;;14.60;77.86;98414.64;1762111;81;20951;-75
2021/06/18 00:36:25;;;;;;;16.80;8.93;;;;;;;14.66;77.38;98414.83;1762121;81;20947;-74
2021/06/18 00:38:51;;;;;;;12.73;9.33;;;;;;;14.69;78.55;98413.41;1762173;81;20968;-74
2021/06/18 00:41:16;;;;;;;14.13;9.73;;;;;;;14.64;79.47;98408.86;1762127;81;20888;-74
2021/06/18 00:43:43;;;;;;;15.60;10.30;;;;;;;14.65;79.01;98408.31;1761258;81;20995;-74
2021/06/18 00:46:11;;;;;;;14.10;10.70;;;;;;;14.60;79.90;98409.73;1762240;81;21094;-74
2021/06/18 00:48:37;;;;;;;16.15;10.98;;;;;;;14.57;78.51;98402.97;1736529;81;20984;-74
2021/06/18 00:51:03;;;;;;;12.47;10.25;;;;;;;14.55;78.10;98409.84;1762243;81;20919;-74
2021/06/18 00:53:29;;;;;;;17.25;11.22;;;;;;;14.49;78.08;98406.36;1736270;81;21305;-74
2021/06/18 00:55:55;;;;;;;12.37;9.20;;;;;;;14.45;76.87;98405.34;1762161;81;21165;-74
2021/06/18 00:58:21;;;;;;;12.18;9.78;;;;;;;14.42;77.27;98403.16;1762178;81;20861;-75
2021/06/18 01:00:48;;;;;;;13.25;9.50;;;;;;;14.39;78.17;98400.48;1762056;81;21451;-74
2021/06/18 01:03:13;;;;;;;11.60;9.25;;;;;;;14.41;79.66;98401.55;1762217;81;21030;-74
2021/06/18 01:05:41;;;;;;;16.12;9.78;;;;;;;14.48;77.73;98396.56;1761911;79;21167;-74
2021/06/18 01:08:43;;;;;;;10.38;8.68;;;;;;;14.50;78.36;98393.54;1762111;81;21416;-74
2021/06/18 01:11:47;;;;;;;14.40;10.20;;;;;;;14.49;78.75;98394.09;1736722;81;21420;-75
2021/06/18 01:14:36;;;;;;;15.32;11.33;;;;;;;14.47;78.79;98402.32;1762350;81;21028;-74
2021/06/18 01:17:19;;;;;;;13.62;10.32;;;;;;;14.42;78.52;98393.63;1743277;81;21444;-74
2021/06/18 01:20:13;;;;;;;12.60;9.73;;;;;;;14.32;77.85;98390.50;1761913;81;21836;-74
2021/06/18 01:22:39;;;;;;;12.68;9.55;;;;;;;14.21;78.71;98394.48;1762217;81;20914;-74
2021/06/18 01:25:26;;;;;;;14.58;9.90;;;;;;;14.13;78.79;98391.05;1762038;81;20872;-74
2021/06/18 01:28:06;;;;;;;17.02;10.25;;;;;;;14.10;79.54;98391.09;1759179;81;20953;-74
2021/06/18 01:30:33;;;;;;;17.12;10.05;;;;;;;14.15;78.78;98393.48;1757586;81;21451;-74
2021/06/18 01:33:13;;;;;;;12.05;9.30;;;;;;;14.17;79.32;98394.80;1761821;81;21176;-74
2021/06/18 01:35:51;;;;;;;15.32;10.48;;;;;;;14.21;79.24;98385.50;1762136;81;21398;-75
2021/06/18 01:38:17;;;;;;;13.60;9.97;;;;;;;14.16;79.58;98383.64;1762681;81;21095;-76
2021/06/18 01:40:44;;;;;;;14.95;11.70;;;;;;;14.19;79.61;98386.35;1762107;81;21043;-75
2021/06/18 01:43:10;;;;;;;16.15;10.63;;;;;;;14.21;79.62;98385.50;1761809;81;21046;-75
2021/06/18 01:45:36;;;;;;;12.60;10.13;;;;;;;14.18;79.64;98385.51;1761180;81;21841;-76
2021/06/18 01:48:04;;;;;;;14.60;10.10;;;;;;;14.11;79.60;98391.35;1761743;81;20956;-75
2021/06/18 01:50:30;;;;;;;11.27;9.57;;;;;;;14.09;79.15;98388.09;1762299;81;21078;-76
2021/06/18 01:53:09;;;;;;;13.90;8.95;;;;;;;14.06;79.76;98383.78;1762103;81;20883;-75
2021/06/18 01:55:35;;;;;;;13.20;9.58;;;;;;;14.05;79.78;98388.98;1736390;81;20984;-74
2021/06/18 01:58:03;;;;;;;14.53;9.73;;;;;;;14.01;79.61;98387.93;1761831;81;21071;-74
2021/06/18 02:00:30;;;;;;;10.97;8.57;;;;;;;13.97;79.78;98393.16;1736494;81;21066;-74
2021/06/18 02:02:58;;;;;;;11.38;9.38;;;;;;;13.99;79.56;98398.31;1761369;81;21114;-74
2021/06/18 02:05:24;;;;;;;12.47;9.20;;;;;;;13.97;79.86;98399.97;1762047;79;20932;-74
2021/06/18 02:07:50;;;;;;;11.83;8.43;;;;;;;13.93;81.17;98404.41;1762073;81;21039;-74
2021/06/18 02:10:16;;;;;;;11.93;8.78;;;;;;;13.96;79.97;98402.45;1736060;81;22877;-74
2021/06/18 02:12:43;;;;;;;11.75;8.30;;;;;;;14.00;79.45;98405.38;1736036;81;21440;-74
2021/06/18 02:15:09;;;;;;;14.45;9.33;;;;;;;14.00;79.48;98402.66;1761927;81;20920;-74
2021/06/18 02:17:36;;;;;;;14.93;9.85;;;;;;;14.01;79.32;98409.17;1736044;81;21346;-73
2021/06/18 02:20:32;;;;;;;11.95;8.83;;;;;;;13.93;81.08;98410.38;1735825;81;20987;-74
2021/06/18 02:22:58;;;;;;;14.55;9.43;;;;;;;13.90;80.33;98402.23;1762048;81;21329;-74
2021/06/18 02:25:24;;;;;;;10.90;8.78;;;;;;;13.89;79.65;98410.71;1762096;81;21463;-75
2021/06/18 02:27:59;;;;;;;11.60;8.78;;;;;;;13.82;79.77;98409.14;1761851;81;20956;-74
2021/06/18 02:30:25;;;;;;;12.90;10.20;;;;;;;13.77;79.51;98403.78;1762038;81;21396;-74
2021/06/18 02:32:51;;;;;;;13.60;9.83;;;;;;;13.69;79.33;98406.33;1762173;81;20964;-74
2021/06/18 02:35:17;;;;;;;11.97;10.15;;;;;;;13.62;80.77;98405.31;1761935;81;21203;-74
2021/06/18 02:37:43;;;;;;;13.60;10.50;;;;;;;13.62;80.14;98409.95;1761867;81;20887;-74
2021/06/18 02:40:09;;;;;;;11.60;9.93;;;;;;;13.57;80.63;98405.91;1761920;81;20895;-74
2021/06/18 02:42:35;;;;;;;19.40;10.18;;;;;;;13.56;80.44;98403.73;1761861;81;20941;-74
2021/06/18 02:45:02;;;;;;;13.35;9.10;;;;;;;13.53;81.28;98408.41;1762097;81;20849;-74
2021/06/18 02:47:39;;;;;;;13.22;9.05;;;;;;;13.58;79.76;98409.70;1761906;81;21072;-74
2021/06/18 02:50:39;;;;;;;10.38;8.13;;;;;;;13.59;80.25;98407.78;1761886;81;20925;-74
2021/06/18 02:53:41;;;;;;;10.72;8.93;;;;;;;13.53;81.43;98405.14;1761898;81;21362;-75
2021/06/18 02:56:31;;;;;;;12.73;8.90;;;;;;;13.58;80.80;98415.70;1762237;81;20968;-75
2021/06/18 02:59:10;;;;;;;12.40;10.05;;;;;;;13.58;80.66;98408.34;1762290;81;21038;-75
2021/06/18 03:01:38;;;;;;;11.97;9.10;;;;;;;13.62;81.09;98414.84;1755820;81;21156;-74
2021/06/18 03:04:05;;;;;;;15.65;9.28;;;;;;;13.63;81.01;98408.30;1761840;81;20917;-74
2021/06/18 03:06:32;;;;;;;12.80;10.32;;;;;;;13.64;81.02;98415.36;1761821;79;21035;-74
2021/06/18 03:09:00;;;;;;;11.33;8.45;;;;;;;13.64;80.71;98418.08;1761999;81;20992;-74
2021/06/18 03:11:28;;;;;;;12.75;8.68;;;;;;;13.63;80.47;98419.73;1762526;81;21038;-74
2021/06/18 03:13:55;;;;;;;14.60;8.70;;;;;;;13.63;80.36;98419.18;1762059;81;21942;-75
2021/06/18 03:16:21;;;;;;;17.12;8.85;;;;;;;13.64;80.17;98415.91;1762326;81;21027;-75
2021/06/18 03:18:47;;;;;;;11.00;8.25;;;;;;;13.62;80.92;98417.56;1762128;81;20844;-75
2021/06/18 03:21:13;;;;;;;12.00;9.38;;;;;;;13.64;80.59;98423.52;1762164;81;21479;-75
2021/06/18 03:23:39;;;;;;;9.43;8.00;;;;;;;13.73;80.50;98430.50;1761924;81;20960;-75
2021/06/18 03:26:05;;;;;;;10.98;9.40;;;;;;;13.83;79.83;98433.91;1761982;81;21194;-75
2021/06/18 03:28:32;;;;;;;11.15;8.50;;;;;;;13.90;79.87;98434.12;1761987;81;20900;-75
2021/06/18 03:31:01;;;;;;;10.00;8.73;;;;;;;13.93;80.21;98430.80;1736297;81;20979;-75
2021/06/18 03:33:27;;;;;;;10.03;7.87;;;;;;;14.06;79.79;98437.73;1762038;81;20928;-74
2021/06/18 03:35:53;;;;;;;10.78;9.20;;;;;;;14.14;80.13;98438.19;1762447;81;20959;-75
2021/06/18 03:38:19;;;;;;;11.83;8.90;;;;;;;14.20;80.43;98441.92;1761983;81;21091;-74
2021/06/18 03:40:45;;;;;;;12.00;8.48;;;;;;;14.32;79.39;98440.12;1736261;81;20924;-75
2021/06/18 03:43:36;;;;;;;12.33;9.15;;;;;;;14.40;79.43;98440.83;1736069;81;21408;-74
2021/06/18 03:46:04;;;;;;;16.45;9.93;;;;;;;14.46;78.98;98436.95;1762675;81;20980;-74
2021/06/18 03:48:30;;;;;;;11.90;8.60;;;;;;;14.49;78.76;98445.91;1761477;81;21416;-75
2021/06/18 03:50:56;;;;;;;10.88;9.08;;;;;;;14.54;78.50;98440.39;1762252;81;21133;-76
2021/06/18 03:53:22;;;;;;;14.63;9.90;;;;;;;14.55;78.29;98442.56;1761309;81;20962;-75
2021/06/18 03:55:48;;;;;;;10.45;9.10;;;;;;;14.62;78.26;98442.45;1736302;81;20864;-75
2021/06/18 03:58:16;;;;;;;12.53;8.35;;;;;;;14.68;78.26;98438.52;1762030;81;20857;-75
2021/06/18 04:00:43;;;;;;;16.83;10.30;;;;;;;14.76;77.97;98434.31;1762483;81;21024;-74
2021/06/18 04:03:09;;;;;;;12.30;9.00;;;;;;;14.85;77.84;98437.98;1762020;81;20995;-74
2021/06/18 04:05:36;;;;;;;12.58;8.90;;;;;;;14.95;77.76;98446.55;1765419;79;21074;-74
2021/06/18 04:08:03;;;;;;;14.28;9.90;;;;;;;15.08;77.51;98445.00;1794171;79;20963;-74
2021/06/18 04:10:29;;;;;;;12.13;8.68;;;;;;;15.24;77.26;98452.63;1794087;80;21424;-74
2021/06/18 04:12:55;;;;;;;14.70;8.48;;;;;;;15.42;77.04;98452.31;1794361;80;20844;-75
2021/06/18 04:15:22;;;;;;;13.30;9.90;;;;;;;15.53;76.58;98450.20;1794473;80;21191;-75
2021/06/18 04:17:50;;;;;;;14.38;8.90;;;;;;;15.65;76.30;98444.30;1794118;80;20884;-74
2021/06/18 04:20:16;;;;;;;15.50;9.38;;;;;;;15.72;75.79;98449.61;1794089;79;20893;-74
2021/06/18 04:22:41;;;;;;;12.05;9.80;;;;;;;15.85;75.33;98451.27;1767468;80;20951;-74
2021/06/18 04:25:09;;;;;;;10.00;8.98;;;;;;;15.86;74.87;98446.87;1794215;79;20836;-74
2021/06/18 04:27:35;;;;;;;12.75;8.55;;;;;;;15.99;74.96;98452.91;1794574;80;21012;-74
2021/06/18 04:30:02;;;;;;;9.48;8.35;;;;;;;16.14;74.55;98453.68;1794128;80;20990;-75
2021/06/18 04:32:28;;;;;;;9.23;7.72;;;;;;;16.19;74.36;98448.92;1794836;79;20904;-74
2021/06/18 04:34:54;;;;;;;9.93;8.50;;;;;;;16.30;74.12;98451.69;1794008;80;20948;-74
2021/06/18 04:37:20;;;;;;;12.13;8.73;;;;;;;16.41;74.11;98452.30;1794393;80;20816;-74
2021/06/18 04:39:46;;;;;;;11.65;9.28;;;;;;;16.53;74.01;98448.45;1794109;80;21982;-74
2021/06/18 04:42:12;;;;;;;13.98;8.53;;;;;;;16.72;73.78;98451.63;1794230;80;20873;-74
2021/06/18 04:44:38;;;;;;;12.82;8.98;;;;;;;16.83;73.41;98447.52;1794237;80;20939;-74
2021/06/18 04:47:04;;;;;;;10.05;8.70;;;;;;;16.84;73.19;98455.44;1794438;80;21046;-74
2021/06/18 04:49:30;;;;;;;12.93;9.85;;;;;;;16.75;73.24;98451.83;1767255;80;20982;-75
2021/06/18 04:51:56;;;;;;;11.30;9.73;;;;;;;16.65;73.31;98451.45;1767578;80;21842;-74
2021/06/18 04:54:23;;;;;;;10.63;8.28;;;;;;;16.57;73.48;98447.27;1794093;80;20860;-74
2021/06/18 04:56:49;;;;;;;12.85;8.38;;;;;;;16.57;73.18;98451.38;1794366;80;21298;-75
2021/06/18 04:59:19;;;;;;;13.55;7.75;;;;;;;16.68;73.36;98446.50;1794266;79;20919;-75
2021/06/18 05:04:24;;;;;;;10.85;8.40;;;;;;;17.23;73.17;98444.91;1811785;78;22625;-74
2021/06/18 05:06:50;;;;;;;11.22;8.40;;;;;;;17.30;72.69;98442.54;1779416;80;20960;-74
2021/06/18 05:09:16;;;;;;;14.00;9.40;;;;;;;17.37;72.21;98447.02;1779318;80;21106;-75
2021/06/18 05:11:42;;;;;;;11.85;10.40;;;;;;;17.56;71.77;98437.20;1779309;80;20877;-74
2021/06/18 05:14:08;;;;;;;13.05;11.63;;;;;;;17.74;71.79;98437.55;1746754;80;20873;-75
2021/06/18 05:16:34;;;;;;;14.25;9.98;;;;;;;17.95;71.33;98441.92;1779621;80;20896;-75
2021/06/18 05:19:00;;;;;;;11.35;10.13;;;;;;;18.18;70.82;98437.13;1779430;80;21508;-74
2021/06/18 05:21:26;;;;;;;34.60;30.90;;;;;;;18.46;70.61;98439.05;1779531;80;21001;-75
2021/06/18 05:23:52;;;;;;;12.20;8.58;;;;;;;18.78;70.39;98443.27;1779229;80;21491;-74
2021/06/18 05:26:18;;;;;;;31.42;20.35;;;;;;;19.07;69.75;98445.38;1779474;80;20959;-75
2021/06/18 05:28:44;;;;;;;11.45;8.95;;;;;;;19.33;68.72;98445.33;1779585;80;20837;-74
2021/06/18 05:31:10;;;;;;;13.55;9.25;;;;;;;19.57;67.55;98447.00;1779584;80;20897;-75
2021/06/18 05:33:36;;;;;;;16.07;10.00;;;;;;;19.85;66.82;98445.19;1779270;80;21271;-75
2021/06/18 05:36:03;;;;;;;14.35;9.15;;;;;;;20.09;65.88;98452.85;1779459;80;20826;-75
2021/06/18 05:38:29;;;;;;;13.25;9.40;;;;;;;20.15;66.23;98444.63;1779239;80;21056;-75
2021/06/18 05:40:55;;;;;;;10.20;9.10;;;;;;;20.41;65.66;98449.41;1779422;80;20869;-75
2021/06/18 05:43:21;;;;;;;11.15;9.58;;;;;;;20.70;64.67;98445.84;1779344;80;20841;-75
2021/06/18 05:45:47;;;;;;;11.53;8.70;;;;;;;20.76;64.43;98449.18;1772416;80;21161;-75
2021/06/18 05:48:13;;;;;;;11.90;8.70;;;;;;;20.72;64.46;98445.50;1779629;80;20885;-74
2021/06/18 05:50:39;;;;;;;13.40;8.90;;;;;;;20.58;64.19;98448.51;1780006;80;21007;-75
2021/06/18 05:53:05;;;;;;;14.00;10.13;;;;;;;20.69;64.11;98443.43;1779048;80;20945;-74
2021/06/18 05:55:31;;;;;;;15.98;9.90;;;;;;;20.69;63.63;98439.30;1779516;80;20893;-75
2021/06/18 05:57:57;;;;;;;18.17;9.90;;;;;;;20.73;63.52;98444.36;1779206;80;21051;-75
2021/06/18 06:00:23;;;;;;;12.33;8.43;;;;;;;21.00;63.29;98441.04;1779422;80;20869;-75
2021/06/18 06:02:49;;;;;;;14.85;9.50;;;;;;;21.25;63.43;98442.52;1781173;80;20905;-75
2021/06/18 06:05:15;;;;;;;11.53;7.65;;;;;;;21.50;62.74;98437.91;1757114;80;21381;-74
2021/06/18 06:07:48;;;;;;;15.55;8.90;;;;;;;21.76;61.69;98436.23;1788012;79;21543;-75
2021/06/18 06:10:14;;;;;;;11.05;8.80;;;;;;;21.97;61.33;98428.67;1788311;79;21113;-74
2021/06/18 06:12:44;;;;;;;11.28;7.67;;;;;;;22.22;61.01;98433.06;1787868;80;21523;-74
2021/06/18 06:15:11;;;;;;;10.88;9.00;;;;;;;22.34;59.96;98435.00;1787272;80;21020;-74
2021/06/18 06:17:37;;;;;;;12.78;8.15;;;;;;;22.48;60.11;98431.30;1787448;80;21038;-74
2021/06/18 06:20:04;;;;;;;10.15;8.70;;;;;;;22.68;59.62;98433.66;1787509;80;20872;-74
2021/06/18 06:22:30;;;;;;;14.03;8.60;;;;;;;22.80;58.90;98435.58;1787667;80;21785;-74
2021/06/18 06:24:56;;;;;;;10.00;7.95;;;;;;;23.00;58.66;98431.87;1787092;80;20971;-75
2021/06/18 06:27:22;;;;;;;11.83;8.33;;;;;;;23.15;58.25;98435.81;1756960;80;20877;-74
2021/06/18 06:29:49;;;;;;;11.18;8.45;;;;;;;23.31;57.73;98426.18;1787391;79;20972;-74
2021/06/18 06:32:15;;;;;;;11.68;8.70;;;;;;;23.41;56.64;98429.00;1756748;80;21520;-75
2021/06/18 06:34:41;;;;;;;12.37;8.53;;;;;;;23.52;57.49;98426.77;1787075;79;22007;-74
2021/06/18 06:37:07;;;;;;;11.88;7.67;;;;;;;23.70;56.88;98423.11;1787424;80;20880;-74
2021/06/18 06:39:33;;;;;;;13.43;9.08;;;;;;;23.74;55.95;98419.03;1787373;79;20921;-74
2021/06/18 06:42:01;;;;;;;15.35;8.75;;;;;;;23.85;55.84;98418.73;1787521;79;20998;-75
2021/06/18 06:44:28;;;;;;;12.70;8.23;;;;;;;23.99;54.87;98419.65;1787454;79;20956;-75
2021/06/18 06:46:54;;;;;;;13.98;9.00;;;;;;;24.07;55.76;98418.08;1787487;79;21053;-75
2021/06/18 06:49:20;;;;;;;9.20;7.87;;;;;;;24.33;55.16;98418.91;1787220;80;20987;-75
2021/06/18 06:51:46;;;;;;;10.55;7.72;;;;;;;24.53;54.45;98418.97;1787481;80;20908;-75
2021/06/18 06:54:12;;;;;;;10.23;7.45;;;;;;;24.62;53.86;98418.98;1787137;80;20964;-74
2021/06/18 06:56:38;;;;;;;10.23;8.25;;;;;;;24.76;53.04;98419.27;1787254;80;20952;-75
2021/06/18 06:59:03;;;;;;;10.58;7.00;;;;;;;24.86;52.86;98410.15;1787250;80;21296;-75
2021/06/18 07:01:29;;;;;;;11.43;7.05;;;;;;;24.98;51.61;98412.79;1787437;79;20983;-75
2021/06/18 07:03:56;;;;;;;9.55;8.03;;;;;;;25.12;50.91;98414.47;1787204;79;21362;-75
2021/06/18 07:06:22;;;;;;;9.48;6.87;;;;;;;25.24;50.42;98411.55;1787378;79;21043;-75
2021/06/18 07:08:48;;;;;;;7.87;7.03;;;;;;;25.36;50.23;98415.33;1787231;79;20881;-74
2021/06/18 07:11:14;;;;;;;10.30;7.30;;;;;;;25.44;50.61;98409.54;1787574;80;20940;-75
2021/06/18 07:13:40;;;;;;;10.13;7.08;;;;;;;25.70;49.72;98406.03;1756829;80;21424;-75
2021/06/18 07:16:06;;;;;;;12.68;6.90;;;;;;;25.80;49.54;98407.41;1787363;80;20849;-75
2021/06/18 07:18:35;;;;;;;8.15;7.35;;;;;;;25.94;48.96;98395.75;1787243;80;20876;-75
2021/06/18 07:21:02;;;;;;;13.18;7.20;;;;;;;26.02;48.46;98400.25;1787202;79;20945;-75
2021/06/18 07:23:28;;;;;;;8.48;7.15;;;;;;;26.36;49.32;98397.78;1787250;79;21711;-75
2021/06/18 07:25:55;;;;;;;8.58;7.35;;;;;;;26.64;48.56;98395.21;1787260;79;21027;-75
2021/06/18 07:28:20;;;;;;;15.63;9.15;;;;;;;26.81;48.85;98396.03;1787060;80;20900;-75
2021/06/18 07:30:46;;;;;;;11.12;8.18;;;;;;;26.97;47.72;98382.72;1787389;80;20884;-74
2021/06/18 07:33:12;;;;;;;12.75;7.50;;;;;;;27.15;47.06;98385.73;1756757;80;20810;-75
2021/06/18 07:35:38;;;;;;;13.45;7.83;;;;;;;27.28;46.49;98392.44;1787466;79;21251;-75
2021/06/18 07:38:04;;;;;;;9.80;6.60;;;;;;;27.39;46.30;98381.61;1756609;80;21468;-75
2021/06/18 07:40:30;;;;;;;10.00;6.45;;;;;;;28.10;43.95;98378.05;1756856;80;20888;-75
2021/06/18 07:42:56;;;;;;;8.55;5.95;;;;;;;28.38;43.26;98369.13;1787250;80;20836;-75
2021/06/18 07:45:22;;;;;;;14.73;7.30;;;;;;;28.81;42.41;98359.58;1787523;79;20920;-76
2021/06/18 07:47:48;;;;;;;10.90;6.47;;;;;;;29.02;42.80;98363.05;1787356;80;21108;-75
2021/06/18 07:50:16;;;;;;;11.83;6.35;;;;;;;29.65;41.04;98367.76;1756441;80;21322;-75
2021/06/18 07:52:43;;;;;;;6.58;5.87;;;;;;;29.81;40.73;98369.56;1757276;80;21000;-75
2021/06/18 07:55:15;;;;;;;7.85;6.15;;;;;;;30.26;40.11;98364.38;1787105;80;20916;-75
2021/06/18 07:57:38;;;;;;;9.08;5.87;;;;;;;30.61;38.17;98361.47;1786933;80;21027;-75
2021/06/18 08:00:06;;;;;;;13.65;7.20;;;;;;;30.53;39.38;98359.11;1787201;80;21099;-75
2021/06/18 08:02:32;;;;;;;6.90;5.80;;;;;;;31.05;39.00;98355.91;1787463;79;21464;-75
2021/06/18 08:04:58;;;;;;;6.15;5.55;;;;;;;31.56;38.42;98358.61;1787041;80;21016;-75
2021/06/18 08:07:24;;;;;;;8.48;4.78;;;;;;;31.99;37.32;98364.67;1787395;80;20943;-76
2021/06/18 08:09:50;;;;;;;9.38;4.92;;;;;;;32.21;35.92;98363.05;1787082;79;20939;-75
2021/06/18 08:12:16;;;;;;;6.50;4.40;;;;;;;32.47;35.30;98357.40;1787434;79;21067;-76
2021/06/18 08:14:42;;;;;;;10.23;4.28;;;;;;;32.59;30.80;98363.09;1787098;80;21354;-75
2021/06/18 08:17:09;;;;;;;7.37;4.47;;;;;;;32.59;29.52;98358.27;1787331;79;20940;-75
2021/06/18 08:19:34;;;;;;;7.33;4.20;;;;;;;33.14;31.53;98352.97;1787059;80;20960;-75
2021/06/18 08:22:02;;;;;;;8.30;5.60;;;;;;;33.14;31.55;98350.77;1787455;80;21006;-75
2021/06/18 08:24:28;;;;;;;7.90;4.80;;;;;;;33.49;29.67;98346.67;1757071;80;21883;-76
2021/06/18 08:26:54;;;;;;;6.60;4.37;;;;;;;33.23;28.02;98344.02;1787347;79;21456;-77
2021/06/18 08:29:20;;;;;;;8.90;4.22;;;;;;;33.53;28.55;98349.63;1787124;80;20888;-76
2021/06/18 08:31:46;;;;;;;5.67;4.55;;;;;;;33.75;28.69;98347.85;1756823;80;20837;-77
2021/06/18 08:34:12;;;;;;;5.05;4.10;;;;;;;34.73;25.89;98347.28;1787759;80;20853;-76
2021/06/18 08:36:39;;;;;;;6.70;4.17;;;;;;;34.28;27.75;98342.73;1787409;80;21608;-76
2021/06/18 08:39:06;;;;;;;9.23;4.47;;;;;;;34.87;26.53;98345.38;1787256;80;21007;-76
2021/06/18 08:41:32;;;;;;;4.75;4.35;;;;;;;34.73;27.04;98348.69;1787522;80;20976;-76
2021/06/18 08:43:58;;;;;;;8.75;3.92;;;;;;;34.72;26.57;98341.48;1787108;80;20915;-76
2021/06/18 08:46:24;;;;;;;4.12;3.50;;;;;;;35.54;24.59;98336.85;1787398;80;20889;-77
2021/06/18 08:48:50;;;;;;;7.67;3.83;;;;;;;35.81;23.86;98349.29;1787186;79;21232;-76
2021/06/18 08:51:16;;;;;;;5.00;3.62;;;;;;;35.97;24.43;98346.29;1787321;80;21476;-76
2021/06/18 08:53:42;;;;;;;6.10;4.60;;;;;;;36.61;22.63;98343.17;1756621;80;21530;-76
2021/06/18 08:56:09;;;;;;;4.92;3.90;;;;;;;36.56;23.36;98334.63;1787430;80;20967;-76
2021/06/18 08:58:35;;;;;;;6.58;4.22;;;;;;;37.05;22.88;98337.25;1787181;79;20905;-76
2021/06/18 09:01:02;;;;;;;4.25;3.72;;;;;;;37.27;22.80;98337.39;1787437;79;21918;-77
2021/06/18 09:03:45;;;;;;;5.78;4.20;;;;;;;36.68;23.65;98335.92;1785261;79;20861;-76
2021/06/18 09:06:31;;;;;;;6.50;3.80;;;;;;;37.46;22.60;98329.95;1768191;81;20890;-76
2021/06/18 09:09:20;;;;;;;4.30;3.50;;;;;;;38.00;22.63;98323.31;1767980;81;21024;-76
2021/06/18 09:11:53;;;;;;;4.28;3.40;;;;;;;38.37;21.72;98315.34;1768050;81;20973;-76
2021/06/18 09:14:32;;;;;;;4.58;3.72;;;;;;;38.19;22.18;98317.19;1767809;81;21394;-77
2021/06/18 09:17:09;;;;;;;4.90;3.77;;;;;;;38.31;22.42;98314.34;1746642;81;21400;-77
2021/06/18 09:19:39;;;;;;;4.85;4.03;;;;;;;37.64;21.42;98314.61;1744191;81;20965;-76
2021/06/18 09:22:17;;;;;;;4.28;3.47;;;;;;;37.47;21.22;98315.98;1768028;81;20965;-76
2021/06/18 09:24:59;;;;;;;6.17;3.45;;;;;;;37.50;21.08;98312.23;1745090;81;20953;-76
2021/06/18 09:27:34;;;;;;;4.22;3.83;;;;;;;39.01;20.11;98309.31;1768005;81;21032;-76
2021/06/18 09:30:30;;;;;;;4.60;4.05;;;;;;;39.09;19.84;98306.36;1767828;81;21025;-76
2021/06/18 09:33:17;;;;;;;6.47;3.37;;;;;;;39.16;21.10;98308.16;1744054;81;21084;-76
2021/06/18 09:36:05;;;;;;;6.75;3.58;;;;;;;40.04;19.60;98304.33;1767750;81;21013;-75
2021/06/18 09:38:55;;;;;;;6.20;3.55;;;;;;;39.21;17.61;98305.48;1744517;81;21422;-75
2021/06/18 09:41:36;;;;;;;5.33;3.47;;;;;;;39.57;18.85;98301.25;1767949;81;21009;-77
2021/06/18 09:44:21;;;;;;;6.95;4.15;;;;;;;39.94;18.74;98298.47;1767811;80;21071;-77
2021/06/18 09:46:55;;;;;;;6.42;3.12;;;;;;;40.47;18.10;98303.88;1768125;81;20992;-76
2021/06/18 09:49:40;;;;;;;4.55;3.40;;;;;;;40.29;17.89;98301.18;1744893;81;21008;-75
2021/06/18 09:52:16;;;;;;;4.70;3.95;;;;;;;41.03;16.92;98303.94;1744295;81;20988;-77
2021/06/18 09:54:44;;;;;;;6.40;3.83;;;;;;;41.07;16.70;98304.55;1767964;81;22021;-76
2021/06/18 09:57:26;;;;;;;6.47;3.15;;;;;;;40.46;17.59;98303.09;1768157;80;20965;-76
2021/06/18 10:00:00;;;;;;;5.53;3.15;;;;;;;40.02;17.92;98300.55;1766193;81;20909;-76
2021/06/18 10:02:48;;;;;;;7.15;3.98;;;;;;;39.58;17.83;98298.57;1768210;81;21001;-76
2021/06/18 10:05:17;;;;;;;4.30;3.25;;;;;;;40.55;16.70;98294.55;1767923;79;20930;-75
2021/06/18 10:07:44;;;;;;;5.95;3.65;;;;;;;40.96;17.16;98296.54;1768333;81;21196;-76
2021/06/18 10:10:16;;;;;;;4.83;3.22;;;;;;;40.98;17.20;98286.11;1767801;81;21071;-76
2021/06/18 10:12:43;;;;;;;7.05;3.83;;;;;;;42.03;15.60;98281.28;1768181;81;20985;-76
2021/06/18 10:15:12;;;;;;;;;;;;;;;41.88;16.01;98279.84;1770436;81;20977;-76
2021/06/18 10:17:40;;;;;;;5.05;3.37;;;;;;;41.43;15.91;98269.50;1767776;81;20196;-76
2021/06/18 10:20:10;;;;;;;3.98;3.52;;;;;;;40.06;17.35;98279.73;1767966;81;21835;-76
2021/06/18 10:22:59;;;;;;;5.60;3.58;;;;;;;37.75;19.63;98284.55;1768058;80;21489;-76
2021/06/18 10:25:41;;;;;;;7.62;4.15;;;;;;;38.27;19.52;98282.55;1767491;81;21386;-76
2021/06/18 10:28:10;;;;;;;5.12;3.33;;;;;;;37.65;19.41;98274.41;1767975;81;20976;-76
2021/06/18 10:30:45;;;;;;;6.03;3.90;;;;;;;39.55;18.88;98267.49;1767904;80;21028;-76
2021/06/18 10:33:31;;;;;;;4.42;3.95;;;;;;;40.83;17.08;98272.55;1745038;81;21119;-76
2021/06/18 10:36:09;;;;;;;3.85;3.42;;;;;;;39.69;17.80;98273.38;1767934;81;21044;-76
2021/06/18 10:38:43;;;;;;;4.40;3.15;;;;;;;39.86;17.18;98266.78;1766328;81;21355;-77
2021/06/18 10:41:24;;;;;;;6.75;3.80;;;;;;;38.62;17.52;98268.31;1746857;81;20977;-76
2021/06/18 10:43:56;;;;;;;6.30;3.35;;;;;;;39.44;17.79;98263.70;1768401;80;21037;-77
2021/06/18 10:46:32;;;;;;;4.12;3.72;;;;;;;40.12;17.28;98260.20;1768147;81;21146;-74
2021/06/18 10:49:00;;;;;;;4.92;3.15;;;;;;;40.49;17.16;98260.97;1769811;81;20989;-76
2021/06/18 10:51:33;;;;;;;5.80;3.50;;;;;;;41.87;16.01;98253.28;1768113;81;21282;-76
2021/06/18 10:54:07;;;;;;;3.45;3.02;;;;;;;42.13;15.59;98257.22;1767957;81;20988;-76
2021/06/18 10:56:51;;;;;;;4.17;3.37;;;;;;;42.24;15.20;98258.85;1768266;81;20953;-76
2021/06/18 10:59:35;;;;;;;4.45;3.30;;;;;;;41.89;15.74;98260.71;1767849;81;21795;-76
2021/06/18 11:02:25;;;;;;;6.87;2.90;;;;;;;40.42;16.51;98249.91;1768124;80;21402;-76
2021/06/18 11:04:55;;;;;;;4.75;2.92;;;;;;;40.31;16.55;98253.88;1746312;80;20914;-77
2021/06/18 11:07:40;;;;;;;5.08;3.37;;;;;;;40.55;16.65;98249.13;1752011;80;20981;-77
2021/06/18 11:10:18;;;;;;;4.28;3.08;;;;;;;40.80;16.42;98252.22;1717079;83;20934;-75
2021/06/18 11:12:47;;;;;;;4.42;3.42;;;;;;;42.09;15.36;98240.14;1748755;82;21153;-76
2021/06/18 11:15:24;;;;;;;5.47;3.40;;;;;;;39.86;17.56;98255.44;1717757;82;20981;-75
2021/06/18 11:18:00;;;;;;;;;;;;;;;38.20;19.01;98246.63;1720986;83;21536;-76
2021/06/18 11:20:47;;;;;;;9.50;4.10;;;;;;;36.96;19.70;98239.72;1718168;83;20157;-75
2021/06/18 11:23:17;;;;;;;3.08;2.75;;;;;;;38.51;17.99;98235.39;1718417;82;26823;-75
2021/06/18 11:26:03;;;;;;;4.45;3.08;;;;;;;39.52;17.53;98236.62;1718516;82;21087;-76
2021/06/18 11:28:38;;;;;;;3.98;3.60;;;;;;;39.98;17.92;98235.27;1717402;82;21052;-76
2021/06/18 11:31:21;;;;;;;3.70;3.17;;;;;;;40.09;17.80;98236.26;1718970;82;20938;-75
2021/06/18 11:33:59;;;;;;;4.40;3.30;;;;;;;41.01;16.67;98236.21;1748571;82;20962;-76
2021/06/18 11:36:35;;;;;;;;;;;;;;;41.26;16.00;98234.98;1721091;82;20989;-76
2021/06/18 11:39:13;;;;;;;7.25;6.12;;;;;;;39.20;18.26;98231.67;1718816;82;21120;-76
2021/06/18 11:41:43;;;;;;;5.72;3.45;;;;;;;39.86;18.13;98230.55;1718784;83;20962;-75
2021/06/18 11:44:11;;;;;;;8.15;4.42;;;;;;;40.54;17.51;98230.53;1719202;82;20981;-76